Aeroporto :
LOGIN :

Iscrizione | Disclaimer

   EN    FR    IT 

 










Sommario :    VFR   VFR Marginale   IFR   IFR Intensivo   IFR Molto Intensivo
Visibilità : 
Base nubi : 
>= 8 km
>= 3000ft
5 / 8 km
1000 / 3000 ft
1500m / 5 km
500 / 1000 ft
800 / 1500m
200 / 500 ft
< 800m
< 200 ft
Simboli :   Temporali  Nebbia  Neve Forte  Precipitazioni Forti  Vento > 20 kt
SIGMETs :   Varie  Temporali  Ghiacco  Turbolenza  Onda orograficha  Ceneri Vulcaniche






- Altitudine del aeroporto : 1416 ft
- Codice IATA : ZRH


LSZH - Zurich

ULTIMO METAR :
  • 272220Z 20006KT 9999 FEW030 BKN065 06/03 Q1008 NOSIG

METARs OBSOLETI :
  • 272150Z 19008KT 9999 FEW030 BKN070 06/03 Q1009 NOSIG
  • 272120Z 21007KT 180V240 9999 -RA FEW029 BKN040 06/03 Q1009 NOSIG
  • 272050Z 22010KT 190V260 9999 -RA FEW040 BKN053 07/03 Q1009 NOSIG
  • 272020Z 24009KT 210V280 9999 -RA FEW048 BKN060 07/02 Q1009 RERADZ NOSIG
  • 271950Z 25006KT 230V310 9999 -RA FEW040 BKN054 08/01 Q1009 NOSIG
  • 271920Z 24005KT 180V270 9999 FEW075 08/01 Q1010 NOSIG

TAF TAF LSZH
Valido dal 27 a 21 ore il 29 a 03 ore UTC


272025Z 2721/2903 25006KT 9999 -RA FEW040 BKN050 TX07/2811Z TN03/2804Z
TEMPO 2721/2810 RA
BECMG 2721/2723 22012KT
TEMPO 2806/2817 24015G30KT
PROB40
TEMPO 2807/2815 25020G40KT
PROB40
TEMPO 2808/2903 2000 SHSNRA BKN010 SCT015TCU
PROB30
TEMPO 2808/2817 1500 TSGS SCT015CB
TEMPO 2817/2903 24012G25KT
ATIS : +41 43 816 2295 (DEP) +41 43 816 2294 (ARR)



MetMap, La meteo Aeronautica in un colpo d'occhio ! - Copyright ORBIFLY Dicembre 2007 - Disclaimer

ORBIFLY MET'MAP TEAM :

Programmazione e sviluppo : Alexandra Zaïnal
Concezione : Baudouin d'Aumeries
Aiuto per la programmazione : Marc-Olivier Méhu
Supporto tecnico e logistico : Manuel Goepfert
Aiuto per la traduzione : Arnaldo La Scala

Contatto : metmap@orbifly.com




FONTI E CREDITI :

   NOAA